sensor_id;sensor_type;location;lat;lon;timestamp;P1;durP1;ratioP1;P2;durP2;ratioP2
53915;SDS011;39827;49.652;18.770;2023-08-24T00:01:15;426.85;;;393.95;;
53915;SDS011;39827;49.652;18.770;2023-08-24T00:03:43;394.98;;;364.70;;
53915;SDS011;39827;49.652;18.770;2023-08-24T00:06:11;388.15;;;358.75;;
53915;SDS011;39827;49.652;18.770;2023-08-24T00:08:37;391.50;;;361.13;;
53915;SDS011;39827;49.652;18.770;2023-08-24T00:11:02;399.67;;;368.95;;
53915;SDS011;39827;49.652;18.770;2023-08-24T00:13:29;446.55;;;412.17;;
53915;SDS011;39827;49.652;18.770;2023-08-24T00:15:55;399.10;;;369.17;;
53915;SDS011;39827;49.652;18.770;2023-08-24T00:18:20;419.77;;;388.00;;
53915;SDS011;39827;49.652;18.770;2023-08-24T00:20:49;408.35;;;378.02;;
53915;SDS011;39827;49.652;18.770;2023-08-24T00:23:14;428.83;;;396.55;;
53915;SDS011;39827;49.652;18.770;2023-08-24T00:25:40;403.75;;;373.30;;
53915;SDS011;39827;49.652;18.770;2023-08-24T00:28:08;425.10;;;392.92;;
53915;SDS011;39827;49.652;18.770;2023-08-24T00:30:36;397.45;;;366.95;;
53915;SDS011;39827;49.652;18.770;2023-08-24T00:33:02;420.45;;;387.90;;
53915;SDS011;39827;49.652;18.770;2023-08-24T00:35:28;417.33;;;385.92;;
53915;SDS011;39827;49.652;18.770;2023-08-24T00:37:53;395.42;;;364.75;;
53915;SDS011;39827;49.652;18.770;2023-08-24T00:40:19;383.02;;;354.90;;
53915;SDS011;39827;49.652;18.770;2023-08-24T00:42:44;383.90;;;354.70;;
53915;SDS011;39827;49.652;18.770;2023-08-24T00:45:11;385.77;;;356.33;;
53915;SDS011;39827;49.652;18.770;2023-08-24T00:47:41;406.92;;;376.33;;
53915;SDS011;39827;49.652;18.770;2023-08-24T00:50:09;395.58;;;366.13;;
53915;SDS011;39827;49.652;18.770;2023-08-24T00:52:36;417.63;;;385.75;;
53915;SDS011;39827;49.652;18.770;2023-08-24T00:55:04;422.70;;;390.55;;
53915;SDS011;39827;49.652;18.770;2023-08-24T00:57:31;396.42;;;366.80;;
53915;SDS011;39827;49.652;18.770;2023-08-24T00:59:57;410.70;;;379.35;;
53915;SDS011;39827;49.652;18.770;2023-08-24T01:02:24;407.00;;;376.52;;
53915;SDS011;39827;49.652;18.770;2023-08-24T01:04:50;373.13;;;344.42;;
53915;SDS011;39827;49.652;18.770;2023-08-24T01:07:16;375.92;;;348.23;;
53915;SDS011;39827;49.652;18.770;2023-08-24T01:09:42;380.42;;;350.90;;
53915;SDS011;39827;49.652;18.770;2023-08-24T01:12:15;366.27;;;339.20;;
53915;SDS011;39827;49.652;18.770;2023-08-24T01:14:57;367.92;;;339.13;;
53915;SDS011;39827;49.652;18.770;2023-08-24T01:17:43;419.45;;;387.48;;
53915;SDS011;39827;49.652;18.770;2023-08-24T01:20:11;402.40;;;371.17;;
53915;SDS011;39827;49.652;18.770;2023-08-24T01:25:52;376.77;;;347.27;;
53915;SDS011;39827;49.652;18.770;2023-08-24T01:28:19;362.55;;;335.05;;
53915;SDS011;39827;49.652;18.770;2023-08-24T01:30:46;373.73;;;345.15;;
53915;SDS011;39827;49.652;18.770;2023-08-24T01:33:12;372.88;;;343.20;;
53915;SDS011;39827;49.652;18.770;2023-08-24T01:35:39;365.75;;;338.40;;
53915;SDS011;39827;49.652;18.770;2023-08-24T01:38:05;406.48;;;375.25;;
53915;SDS011;39827;49.652;18.770;2023-08-24T01:40:35;405.25;;;374.27;;
53915;SDS011;39827;49.652;18.770;2023-08-24T01:43:07;387.95;;;358.60;;
53915;SDS011;39827;49.652;18.770;2023-08-24T01:45:34;374.55;;;345.63;;
53915;SDS011;39827;49.652;18.770;2023-08-24T01:48:03;393.45;;;363.17;;
53915;SDS011;39827;49.652;18.770;2023-08-24T01:50:30;394.10;;;364.60;;
53915;SDS011;39827;49.652;18.770;2023-08-24T01:52:56;375.05;;;346.95;;
53915;SDS011;39827;49.652;18.770;2023-08-24T01:55:22;360.33;;;333.85;;
53915;SDS011;39827;49.652;18.770;2023-08-24T01:57:48;372.95;;;344.90;;
53915;SDS011;39827;49.652;18.770;2023-08-24T02:00:14;410.67;;;379.98;;
53915;SDS011;39827;49.652;18.770;2023-08-24T02:02:41;376.70;;;346.90;;
53915;SDS011;39827;49.652;18.770;2023-08-24T02:05:07;395.58;;;366.95;;
53915;SDS011;39827;49.652;18.770;2023-08-24T02:07:33;407.50;;;376.33;;
53915;SDS011;39827;49.652;18.770;2023-08-24T02:09:58;417.35;;;385.40;;
53915;SDS011;39827;49.652;18.770;2023-08-24T02:12:24;378.02;;;349.23;;
53915;SDS011;39827;49.652;18.770;2023-08-24T02:14:49;414.10;;;383.17;;
53915;SDS011;39827;49.652;18.770;2023-08-24T02:17:14;408.33;;;377.70;;
53915;SDS011;39827;49.652;18.770;2023-08-24T02:19:40;390.25;;;359.90;;
53915;SDS011;39827;49.652;18.770;2023-08-24T02:22:08;357.67;;;329.88;;
53915;SDS011;39827;49.652;18.770;2023-08-24T02:24:33;400.30;;;368.50;;
53915;SDS011;39827;49.652;18.770;2023-08-24T02:26:59;400.10;;;369.13;;
53915;SDS011;39827;49.652;18.770;2023-08-24T02:29:25;414.65;;;383.13;;
53915;SDS011;39827;49.652;18.770;2023-08-24T02:31:51;399.48;;;368.90;;
53915;SDS011;39827;49.652;18.770;2023-08-24T02:34:16;385.95;;;356.83;;
53915;SDS011;39827;49.652;18.770;2023-08-24T02:36:42;387.20;;;358.38;;
53915;SDS011;39827;49.652;18.770;2023-08-24T02:39:07;403.80;;;373.30;;
53915;SDS011;39827;49.652;18.770;2023-08-24T02:41:33;374.30;;;345.17;;
53915;SDS011;39827;49.652;18.770;2023-08-24T02:43:59;436.52;;;403.55;;
53915;SDS011;39827;49.652;18.770;2023-08-24T02:46:25;396.67;;;366.55;;
53915;SDS011;39827;49.652;18.770;2023-08-24T02:48:50;363.55;;;337.10;;
53915;SDS011;39827;49.652;18.770;2023-08-24T02:51:16;349.42;;;322.60;;
53915;SDS011;39827;49.652;18.770;2023-08-24T02:53:41;407.27;;;376.60;;
53915;SDS011;39827;49.652;18.770;2023-08-24T02:56:06;388.17;;;358.52;;
53915;SDS011;39827;49.652;18.770;2023-08-24T02:58:32;409.60;;;377.45;;
53915;SDS011;39827;49.652;18.770;2023-08-24T03:00:57;400.95;;;369.38;;
53915;SDS011;39827;49.652;18.770;2023-08-24T03:03:23;407.88;;;377.45;;
53915;SDS011;39827;49.652;18.770;2023-08-24T03:05:56;381.75;;;352.27;;
53915;SDS011;39827;49.652;18.770;2023-08-24T03:08:23;418.33;;;385.98;;
53915;SDS011;39827;49.652;18.770;2023-08-24T03:10:49;430.58;;;397.75;;
53915;SDS011;39827;49.652;18.770;2023-08-24T03:13:15;430.88;;;398.60;;
53915;SDS011;39827;49.652;18.770;2023-08-24T03:15:40;434.80;;;399.50;;
53915;SDS011;39827;49.652;18.770;2023-08-24T03:18:06;394.42;;;363.92;;
53915;SDS011;39827;49.652;18.770;2023-08-24T03:20:31;411.67;;;380.15;;
53915;SDS011;39827;49.652;18.770;2023-08-24T03:22:57;385.80;;;355.45;;
53915;SDS011;39827;49.652;18.770;2023-08-24T03:25:22;395.65;;;365.83;;
53915;SDS011;39827;49.652;18.770;2023-08-24T03:27:48;376.08;;;346.83;;
53915;SDS011;39827;49.652;18.770;2023-08-24T03:30:14;383.08;;;354.85;;
53915;SDS011;39827;49.652;18.770;2023-08-24T03:32:40;397.98;;;368.17;;
53915;SDS011;39827;49.652;18.770;2023-08-24T03:35:06;394.17;;;364.85;;
53915;SDS011;39827;49.652;18.770;2023-08-24T03:37:32;413.67;;;377.42;;
53915;SDS011;39827;49.652;18.770;2023-08-24T03:39:57;383.60;;;355.02;;
53915;SDS011;39827;49.652;18.770;2023-08-24T03:42:23;433.15;;;400.65;;
53915;SDS011;39827;49.652;18.770;2023-08-24T03:44:48;409.50;;;378.10;;
53915;SDS011;39827;49.652;18.770;2023-08-24T03:47:14;406.65;;;376.42;;
53915;SDS011;39827;49.652;18.770;2023-08-24T03:49:41;366.20;;;337.90;;
53915;SDS011;39827;49.652;18.770;2023-08-24T03:52:07;342.48;;;316.40;;
53915;SDS011;39827;49.652;18.770;2023-08-24T03:54:33;369.27;;;341.95;;
53915;SDS011;39827;49.652;18.770;2023-08-24T03:56:58;394.80;;;364.23;;
53915;SDS011;39827;49.652;18.770;2023-08-24T03:59:24;389.13;;;359.73;;
53915;SDS011;39827;49.652;18.770;2023-08-24T04:01:49;437.88;;;404.90;;
53915;SDS011;39827;49.652;18.770;2023-08-24T04:04:14;385.58;;;355.95;;
53915;SDS011;39827;49.652;18.770;2023-08-24T04:06:40;380.45;;;350.98;;
53915;SDS011;39827;49.652;18.770;2023-08-24T04:09:05;412.17;;;380.60;;
53915;SDS011;39827;49.652;18.770;2023-08-24T04:11:31;405.83;;;374.95;;
53915;SDS011;39827;49.652;18.770;2023-08-24T04:13:57;410.00;;;378.92;;
53915;SDS011;39827;49.652;18.770;2023-08-24T04:16:22;424.50;;;391.77;;
53915;SDS011;39827;49.652;18.770;2023-08-24T04:18:48;417.33;;;384.80;;
53915;SDS011;39827;49.652;18.770;2023-08-24T04:21:13;438.23;;;405.05;;
53915;SDS011;39827;49.652;18.770;2023-08-24T04:23:38;450.65;;;415.85;;
53915;SDS011;39827;49.652;18.770;2023-08-24T04:26:09;422.08;;;388.92;;
53915;SDS011;39827;49.652;18.770;2023-08-24T04:28:36;433.50;;;400.02;;
53915;SDS011;39827;49.652;18.770;2023-08-24T04:31:01;456.48;;;420.70;;
53915;SDS011;39827;49.652;18.770;2023-08-24T04:33:26;392.23;;;362.23;;
53915;SDS011;39827;49.652;18.770;2023-08-24T04:35:52;428.67;;;395.38;;
53915;SDS011;39827;49.652;18.770;2023-08-24T04:38:17;416.17;;;384.42;;
53915;SDS011;39827;49.652;18.770;2023-08-24T04:40:46;453.83;;;418.52;;
53915;SDS011;39827;49.652;18.770;2023-08-24T04:43:12;410.38;;;378.63;;
53915;SDS011;39827;49.652;18.770;2023-08-24T04:45:37;430.42;;;397.70;;
53915;SDS011;39827;49.652;18.770;2023-08-24T04:48:03;402.13;;;371.85;;
53915;SDS011;39827;49.652;18.770;2023-08-24T04:50:28;465.92;;;430.00;;
53915;SDS011;39827;49.652;18.770;2023-08-24T04:52:54;468.23;;;432.70;;
53915;SDS011;39827;49.652;18.770;2023-08-24T04:55:19;416.98;;;384.77;;
53915;SDS011;39827;49.652;18.770;2023-08-24T04:57:44;411.83;;;380.42;;
53915;SDS011;39827;49.652;18.770;2023-08-24T05:00:10;384.05;;;354.95;;
53915;SDS011;39827;49.652;18.770;2023-08-24T05:02:41;443.13;;;408.90;;
53915;SDS011;39827;49.652;18.770;2023-08-24T05:05:07;365.10;;;338.17;;
53915;SDS011;39827;49.652;18.770;2023-08-24T05:07:35;387.50;;;359.10;;
53915;SDS011;39827;49.652;18.770;2023-08-24T05:10:00;393.15;;;364.20;;
53915;SDS011;39827;49.652;18.770;2023-08-24T05:12:26;457.58;;;423.70;;
53915;SDS011;39827;49.652;18.770;2023-08-24T05:14:51;423.33;;;392.33;;
53915;SDS011;39827;49.652;18.770;2023-08-24T05:17:16;403.23;;;373.42;;
53915;SDS011;39827;49.652;18.770;2023-08-24T05:19:42;477.50;;;442.83;;
53915;SDS011;39827;49.652;18.770;2023-08-24T05:22:07;455.35;;;421.05;;
53915;SDS011;39827;49.652;18.770;2023-08-24T05:24:33;414.92;;;384.45;;
53915;SDS011;39827;49.652;18.770;2023-08-24T05:26:58;513.85;;;474.02;;
53915;SDS011;39827;49.652;18.770;2023-08-24T05:29:23;432.75;;;399.25;;
53915;SDS011;39827;49.652;18.770;2023-08-24T05:31:49;496.70;;;459.33;;
53915;SDS011;39827;49.652;18.770;2023-08-24T05:34:14;460.05;;;426.63;;
53915;SDS011;39827;49.652;18.770;2023-08-24T05:36:39;463.33;;;429.15;;
53915;SDS011;39827;49.652;18.770;2023-08-24T05:39:05;441.98;;;409.27;;
53915;SDS011;39827;49.652;18.770;2023-08-24T05:41:30;404.40;;;374.40;;
53915;SDS011;39827;49.652;18.770;2023-08-24T05:43:56;425.52;;;393.92;;
53915;SDS011;39827;49.652;18.770;2023-08-24T05:46:22;415.15;;;384.88;;
53915;SDS011;39827;49.652;18.770;2023-08-24T05:48:47;333.67;;;311.88;;
53915;SDS011;39827;49.652;18.770;2023-08-24T05:51:13;319.38;;;293.50;;
53915;SDS011;39827;49.652;18.770;2023-08-24T05:53:38;220.30;;;203.30;;
53915;SDS011;39827;49.652;18.770;2023-08-24T05:56:05;198.82;;;184.18;;
53915;SDS011;39827;49.652;18.770;2023-08-24T05:58:31;216.55;;;203.15;;
53915;SDS011;39827;49.652;18.770;2023-08-24T06:00:57;200.35;;;188.00;;
53915;SDS011;39827;49.652;18.770;2023-08-24T06:03:25;189.77;;;178.18;;
53915;SDS011;39827;49.652;18.770;2023-08-24T06:05:51;152.07;;;142.50;;
53915;SDS011;39827;49.652;18.770;2023-08-24T06:08:17;219.82;;;206.15;;
53915;SDS011;39827;49.652;18.770;2023-08-24T06:10:42;202.25;;;189.85;;
53915;SDS011;39827;49.652;18.770;2023-08-24T06:13:08;70.70;;;66.15;;
53915;SDS011;39827;49.652;18.770;2023-08-24T06:15:33;59.20;;;55.35;;
53915;SDS011;39827;49.652;18.770;2023-08-24T06:17:59;89.85;;;84.68;;
53915;SDS011;39827;49.652;18.770;2023-08-24T06:20:25;61.67;;;57.88;;
53915;SDS011;39827;49.652;18.770;2023-08-24T06:22:50;42.33;;;39.50;;
53915;SDS011;39827;49.652;18.770;2023-08-24T06:25:15;74.03;;;69.47;;
53915;SDS011;39827;49.652;18.770;2023-08-24T06:27:41;71.13;;;66.57;;
53915;SDS011;39827;49.652;18.770;2023-08-24T06:30:07;71.20;;;66.55;;
53915;SDS011;39827;49.652;18.770;2023-08-24T06:32:32;92.30;;;86.40;;
53915;SDS011;39827;49.652;18.770;2023-08-24T06:34:58;84.13;;;78.90;;
53915;SDS011;39827;49.652;18.770;2023-08-24T06:37:24;76.80;;;71.78;;
53915;SDS011;39827;49.652;18.770;2023-08-24T06:39:50;110.38;;;103.50;;
53915;SDS011;39827;49.652;18.770;2023-08-24T06:42:15;114.93;;;107.60;;
53915;SDS011;39827;49.652;18.770;2023-08-24T06:44:41;120.75;;;113.28;;
53915;SDS011;39827;49.652;18.770;2023-08-24T06:47:06;162.75;;;153.07;;
53915;SDS011;39827;49.652;18.770;2023-08-24T06:49:31;192.07;;;180.32;;
53915;SDS011;39827;49.652;18.770;2023-08-24T06:51:57;215.98;;;202.38;;
53915;SDS011;39827;49.652;18.770;2023-08-24T06:54:22;246.73;;;232.25;;
53915;SDS011;39827;49.652;18.770;2023-08-24T06:56:48;113.88;;;107.43;;
53915;SDS011;39827;49.652;18.770;2023-08-24T06:59:13;34.55;;;32.38;;
53915;SDS011;39827;49.652;18.770;2023-08-24T07:01:39;95.72;;;89.82;;
53915;SDS011;39827;49.652;18.770;2023-08-24T07:04:05;58.80;;;54.95;;
53915;SDS011;39827;49.652;18.770;2023-08-24T07:06:33;116.45;;;109.72;;
53915;SDS011;39827;49.652;18.770;2023-08-24T07:08:59;101.15;;;95.22;;
53915;SDS011;39827;49.652;18.770;2023-08-24T07:11:25;87.55;;;82.15;;
53915;SDS011;39827;49.652;18.770;2023-08-24T07:13:51;67.55;;;63.47;;
53915;SDS011;39827;49.652;18.770;2023-08-24T07:16:18;87.85;;;82.50;;
53915;SDS011;39827;49.652;18.770;2023-08-24T07:18:44;68.43;;;64.05;;
53915;SDS011;39827;49.652;18.770;2023-08-24T07:21:09;68.90;;;64.57;;
53915;SDS011;39827;49.652;18.770;2023-08-24T07:23:35;102.80;;;96.40;;
53915;SDS011;39827;49.652;18.770;2023-08-24T07:26:00;198.02;;;185.35;;
53915;SDS011;39827;49.652;18.770;2023-08-24T07:28:25;223.32;;;208.85;;
53915;SDS011;39827;49.652;18.770;2023-08-24T07:30:51;310.60;;;289.35;;
53915;SDS011;39827;49.652;18.770;2023-08-24T07:33:21;153.65;;;143.38;;
53915;SDS011;39827;49.652;18.770;2023-08-24T07:35:46;157.07;;;147.15;;
53915;SDS011;39827;49.652;18.770;2023-08-24T07:38:12;204.13;;;190.77;;
53915;SDS011;39827;49.652;18.770;2023-08-24T07:40:37;174.52;;;163.07;;
53915;SDS011;39827;49.652;18.770;2023-08-24T07:43:03;163.50;;;152.88;;
53915;SDS011;39827;49.652;18.770;2023-08-24T07:45:29;393.40;;;366.52;;
53915;SDS011;39827;49.652;18.770;2023-08-24T07:47:54;371.33;;;345.98;;
53915;SDS011;39827;49.652;18.770;2023-08-24T07:50:20;440.08;;;409.63;;
53915;SDS011;39827;49.652;18.770;2023-08-24T07:52:47;384.13;;;358.02;;
53915;SDS011;39827;49.652;18.770;2023-08-24T07:55:13;535.55;;;496.83;;
53915;SDS011;39827;49.652;18.770;2023-08-24T07:57:39;412.50;;;384.70;;
53915;SDS011;39827;49.652;18.770;2023-08-24T08:00:04;461.85;;;430.60;;
53915;SDS011;39827;49.652;18.770;2023-08-24T08:02:30;564.95;;;527.25;;
53915;SDS011;39827;49.652;18.770;2023-08-24T08:04:58;274.95;;;256.92;;
53915;SDS011;39827;49.652;18.770;2023-08-24T08:07:27;208.88;;;196.95;;
53915;SDS011;39827;49.652;18.770;2023-08-24T08:09:52;242.75;;;228.43;;
53915;SDS011;39827;49.652;18.770;2023-08-24T08:12:18;247.75;;;233.50;;
53915;SDS011;39827;49.652;18.770;2023-08-24T08:14:43;210.65;;;198.63;;
53915;SDS011;39827;49.652;18.770;2023-08-24T08:17:09;328.55;;;307.00;;
53915;SDS011;39827;49.652;18.770;2023-08-24T08:19:34;386.13;;;359.77;;
53915;SDS011;39827;49.652;18.770;2023-08-24T08:22:02;510.80;;;472.92;;
53915;SDS011;39827;49.652;18.770;2023-08-24T08:24:28;338.25;;;315.70;;
53915;SDS011;39827;49.652;18.770;2023-08-24T08:26:53;405.58;;;377.23;;
53915;SDS011;39827;49.652;18.770;2023-08-24T08:29:19;295.27;;;276.02;;
53915;SDS011;39827;49.652;18.770;2023-08-24T08:31:44;232.30;;;217.50;;
53915;SDS011;39827;49.652;18.770;2023-08-24T08:34:10;230.10;;;215.23;;
53915;SDS011;39827;49.652;18.770;2023-08-24T08:36:35;235.50;;;219.93;;
53915;SDS011;39827;49.652;18.770;2023-08-24T08:39:01;306.05;;;284.90;;
53915;SDS011;39827;49.652;18.770;2023-08-24T08:41:30;159.18;;;149.02;;
53915;SDS011;39827;49.652;18.770;2023-08-24T08:43:58;176.25;;;165.35;;
53915;SDS011;39827;49.652;18.770;2023-08-24T08:46:25;190.63;;;178.65;;
53915;SDS011;39827;49.652;18.770;2023-08-24T08:48:52;215.77;;;201.57;;
53915;SDS011;39827;49.652;18.770;2023-08-24T08:51:18;221.35;;;207.75;;
53915;SDS011;39827;49.652;18.770;2023-08-24T08:53:43;213.02;;;199.60;;
53915;SDS011;39827;49.652;18.770;2023-08-24T08:56:09;219.27;;;205.45;;
53915;SDS011;39827;49.652;18.770;2023-08-24T08:58:34;229.70;;;215.32;;
53915;SDS011;39827;49.652;18.770;2023-08-24T09:01:02;227.07;;;213.13;;
53915;SDS011;39827;49.652;18.770;2023-08-24T09:03:28;251.77;;;235.20;;
53915;SDS011;39827;49.652;18.770;2023-08-24T09:05:56;290.40;;;269.92;;
53915;SDS011;39827;49.652;18.770;2023-08-24T09:08:21;243.90;;;227.90;;
53915;SDS011;39827;49.652;18.770;2023-08-24T09:10:47;197.15;;;184.55;;
53915;SDS011;39827;49.652;18.770;2023-08-24T09:13:13;177.98;;;166.95;;
53915;SDS011;39827;49.652;18.770;2023-08-24T09:15:39;163.10;;;152.63;;
53915;SDS011;39827;49.652;18.770;2023-08-24T09:18:04;165.02;;;154.50;;
53915;SDS011;39827;49.652;18.770;2023-08-24T09:20:30;236.95;;;221.48;;
53915;SDS011;39827;49.652;18.770;2023-08-24T09:22:56;244.82;;;228.98;;
53915;SDS011;39827;49.652;18.770;2023-08-24T09:25:24;195.82;;;183.43;;
53915;SDS011;39827;49.652;18.770;2023-08-24T09:28:08;196.07;;;183.50;;
53915;SDS011;39827;49.652;18.770;2023-08-24T09:30:36;189.35;;;177.27;;
53915;SDS011;39827;49.652;18.770;2023-08-24T09:33:03;176.52;;;165.07;;
53915;SDS011;39827;49.652;18.770;2023-08-24T09:35:34;249.05;;;232.98;;
53915;SDS011;39827;49.652;18.770;2023-08-24T09:38:14;221.95;;;205.50;;
53915;SDS011;39827;49.652;18.770;2023-08-24T09:40:44;190.90;;;178.48;;
53915;SDS011;39827;49.652;18.770;2023-08-24T09:43:12;417.00;;;173.25;;
53915;SDS011;39827;49.652;18.770;2023-08-24T09:45:38;196.85;;;184.25;;
53915;SDS011;39827;49.652;18.770;2023-08-24T09:48:13;233.52;;;218.55;;
53915;SDS011;39827;49.652;18.770;2023-08-24T09:50:39;223.27;;;208.55;;
53915;SDS011;39827;49.652;18.770;2023-08-24T09:53:06;132.15;;;120.35;;
53915;SDS011;39827;49.652;18.770;2023-08-24T09:55:34;181.77;;;171.02;;
53915;SDS011;39827;49.652;18.770;2023-08-24T09:58:02;134.30;;;126.30;;
53915;SDS011;39827;49.652;18.770;2023-08-24T10:00:31;163.13;;;153.25;;
53915;SDS011;39827;49.652;18.770;2023-08-24T10:02:56;70.60;;;66.05;;
53915;SDS011;39827;49.652;18.770;2023-08-24T10:05:24;188.55;;;176.93;;
53915;SDS011;39827;49.652;18.770;2023-08-24T10:07:51;81.82;;;76.90;;
53915;SDS011;39827;49.652;18.770;2023-08-24T10:10:19;175.98;;;165.20;;
53915;SDS011;39827;49.652;18.770;2023-08-24T10:12:47;96.40;;;90.65;;
53915;SDS011;39827;49.652;18.770;2023-08-24T10:15:15;208.95;;;196.38;;
53915;SDS011;39827;49.652;18.770;2023-08-24T10:17:43;167.68;;;157.65;;
53915;SDS011;39827;49.652;18.770;2023-08-24T10:20:10;158.48;;;149.02;;
53915;SDS011;39827;49.652;18.770;2023-08-24T10:22:36;131.40;;;123.10;;
53915;SDS011;39827;49.652;18.770;2023-08-24T10:25:03;162.38;;;151.63;;
53915;SDS011;39827;49.652;18.770;2023-08-24T10:27:29;140.82;;;131.32;;
53915;SDS011;39827;49.652;18.770;2023-08-24T10:29:55;143.45;;;134.57;;
53915;SDS011;39827;49.652;18.770;2023-08-24T10:32:21;214.18;;;197.25;;
53915;SDS011;39827;49.652;18.770;2023-08-24T10:34:49;334.83;;;312.67;;
53915;SDS011;39827;49.652;18.770;2023-08-24T10:37:14;343.67;;;319.40;;
53915;SDS011;39827;49.652;18.770;2023-08-24T10:39:44;296.55;;;277.02;;
53915;SDS011;39827;49.652;18.770;2023-08-24T10:42:11;218.15;;;202.90;;
53915;SDS011;39827;49.652;18.770;2023-08-24T10:44:38;373.25;;;346.83;;
53915;SDS011;39827;49.652;18.770;2023-08-24T10:47:11;351.70;;;328.15;;
53915;SDS011;39827;49.652;18.770;2023-08-24T10:49:59;421.30;;;391.13;;
53915;SDS011;39827;49.652;18.770;2023-08-24T10:52:30;397.17;;;368.77;;
53915;SDS011;39827;49.652;18.770;2023-08-24T10:54:55;389.25;;;362.73;;
53915;SDS011;39827;49.652;18.770;2023-08-24T10:59:59;357.23;;;333.17;;
53915;SDS011;39827;49.652;18.770;2023-08-24T11:02:25;414.55;;;385.08;;
53915;SDS011;39827;49.652;18.770;2023-08-24T11:05:03;445.15;;;413.02;;
53915;SDS011;39827;49.652;18.770;2023-08-24T11:07:47;382.30;;;355.50;;
53915;SDS011;39827;49.652;18.770;2023-08-24T11:10:19;454.67;;;422.35;;
53915;SDS011;39827;49.652;18.770;2023-08-24T11:15:31;409.25;;;380.38;;
53915;SDS011;39827;49.652;18.770;2023-08-24T11:20:36;303.55;;;284.17;;
53915;SDS011;39827;49.652;18.770;2023-08-24T11:23:02;314.80;;;293.85;;
53915;SDS011;39827;49.652;18.770;2023-08-24T11:25:28;364.33;;;339.67;;
53915;SDS011;39827;49.652;18.770;2023-08-24T11:27:53;304.52;;;284.17;;
53915;SDS011;39827;49.652;18.770;2023-08-24T11:30:19;312.70;;;291.67;;
53915;SDS011;39827;49.652;18.770;2023-08-24T11:32:44;274.15;;;256.23;;
53915;SDS011;39827;49.652;18.770;2023-08-24T11:35:18;277.35;;;258.88;;
53915;SDS011;39827;49.652;18.770;2023-08-24T11:37:43;299.83;;;279.95;;
53915;SDS011;39827;49.652;18.770;2023-08-24T11:40:16;287.50;;;268.88;;
53915;SDS011;39827;49.652;18.770;2023-08-24T11:42:42;291.23;;;272.02;;
53915;SDS011;39827;49.652;18.770;2023-08-24T11:45:11;248.95;;;233.05;;
53915;SDS011;39827;49.652;18.770;2023-08-24T11:47:40;287.40;;;268.80;;
53915;SDS011;39827;49.652;18.770;2023-08-24T11:50:07;246.52;;;230.73;;
53915;SDS011;39827;49.652;18.770;2023-08-24T11:52:38;289.58;;;270.38;;
53915;SDS011;39827;49.652;18.770;2023-08-24T11:55:05;290.10;;;271.10;;
53915;SDS011;39827;49.652;18.770;2023-08-24T11:57:35;273.75;;;255.85;;
53915;SDS011;39827;49.652;18.770;2023-08-24T12:00:02;193.68;;;181.07;;
53915;SDS011;39827;49.652;18.770;2023-08-24T12:02:29;269.33;;;251.50;;
53915;SDS011;39827;49.652;18.770;2023-08-24T12:04:55;203.68;;;190.65;;
53915;SDS011;39827;49.652;18.770;2023-08-24T12:07:21;244.27;;;228.60;;
53915;SDS011;39827;49.652;18.770;2023-08-24T12:09:47;200.27;;;187.32;;
53915;SDS011;39827;49.652;18.770;2023-08-24T12:12:16;185.63;;;173.93;;
53915;SDS011;39827;49.652;18.770;2023-08-24T12:14:46;148.68;;;139.50;;
53915;SDS011;39827;49.652;18.770;2023-08-24T12:17:12;126.45;;;118.57;;
53915;SDS011;39827;49.652;18.770;2023-08-24T12:22:24;82.28;;;77.30;;
53915;SDS011;39827;49.652;18.770;2023-08-24T12:24:49;73.60;;;69.07;;
53915;SDS011;39827;49.652;18.770;2023-08-24T12:27:22;72.32;;;67.93;;
53915;SDS011;39827;49.652;18.770;2023-08-24T12:29:48;58.67;;;54.88;;
53915;SDS011;39827;49.652;18.770;2023-08-24T12:32:14;54.72;;;51.20;;
53915;SDS011;39827;49.652;18.770;2023-08-24T12:34:41;78.75;;;73.55;;
53915;SDS011;39827;49.652;18.770;2023-08-24T12:37:08;58.00;;;54.22;;
53915;SDS011;39827;49.652;18.770;2023-08-24T12:39:35;53.40;;;49.90;;
53915;SDS011;39827;49.652;18.770;2023-08-24T12:42:02;57.60;;;53.90;;
53915;SDS011;39827;49.652;18.770;2023-08-24T12:44:27;49.80;;;46.38;;
53915;SDS011;39827;49.652;18.770;2023-08-24T12:46:53;50.78;;;47.03;;
53915;SDS011;39827;49.652;18.770;2023-08-24T12:49:18;112.88;;;106.30;;
53915;SDS011;39827;49.652;18.770;2023-08-24T12:51:44;99.90;;;93.97;;
53915;SDS011;39827;49.652;18.770;2023-08-24T12:54:09;80.75;;;75.90;;
53915;SDS011;39827;49.652;18.770;2023-08-24T12:56:34;97.43;;;91.80;;
53915;SDS011;39827;49.652;18.770;2023-08-24T12:59:00;91.20;;;85.82;;
53915;SDS011;39827;49.652;18.770;2023-08-24T13:01:26;122.63;;;115.45;;
53915;SDS011;39827;49.652;18.770;2023-08-24T13:03:51;68.43;;;64.13;;
53915;SDS011;39827;49.652;18.770;2023-08-24T13:06:17;92.53;;;87.03;;
53915;SDS011;39827;49.652;18.770;2023-08-24T13:08:42;128.27;;;120.55;;
53915;SDS011;39827;49.652;18.770;2023-08-24T13:11:09;125.22;;;117.95;;
53915;SDS011;39827;49.652;18.770;2023-08-24T13:13:36;116.18;;;109.15;;
53915;SDS011;39827;49.652;18.770;2023-08-24T13:16:01;116.00;;;109.10;;
53915;SDS011;39827;49.652;18.770;2023-08-24T13:18:27;134.68;;;126.53;;
53915;SDS011;39827;49.652;18.770;2023-08-24T13:20:52;107.50;;;101.00;;
53915;SDS011;39827;49.652;18.770;2023-08-24T13:23:18;103.65;;;97.22;;
53915;SDS011;39827;49.652;18.770;2023-08-24T13:25:43;99.63;;;93.43;;
53915;SDS011;39827;49.652;18.770;2023-08-24T13:28:09;89.35;;;83.93;;
53915;SDS011;39827;49.652;18.770;2023-08-24T13:30:34;95.65;;;89.75;;
53915;SDS011;39827;49.652;18.770;2023-08-24T13:33:00;110.07;;;103.15;;
53915;SDS011;39827;49.652;18.770;2023-08-24T13:35:25;140.07;;;131.85;;
53915;SDS011;39827;49.652;18.770;2023-08-24T13:37:51;114.35;;;107.45;;
53915;SDS011;39827;49.652;18.770;2023-08-24T13:40:16;117.68;;;110.65;;
53915;SDS011;39827;49.652;18.770;2023-08-24T13:42:42;111.88;;;105.03;;
53915;SDS011;39827;49.652;18.770;2023-08-24T13:45:07;84.72;;;79.43;;
53915;SDS011;39827;49.652;18.770;2023-08-24T13:47:33;97.32;;;91.10;;
53915;SDS011;39827;49.652;18.770;2023-08-24T13:49:59;88.22;;;82.88;;
53915;SDS011;39827;49.652;18.770;2023-08-24T13:52:24;89.68;;;84.15;;
53915;SDS011;39827;49.652;18.770;2023-08-24T13:54:49;112.07;;;105.28;;
53915;SDS011;39827;49.652;18.770;2023-08-24T13:57:15;87.07;;;81.78;;
53915;SDS011;39827;49.652;18.770;2023-08-24T13:59:41;87.70;;;82.05;;